Time;durP1;ratioP1;P1;durP2;ratioP2;P2;SDS_P1;SDS_P2;PMS_P1;PMS_P2;Temp;Humidity;BMP_temperature;BMP_pressure;BME280_temperature;BME280_humidity;BME280_pressure;Samples;Min_cycle;Max_cycle;Signal;HPM_P1;HPM_P2
2022/09/16 00:00:54;;;;;;;5.03;3.20;;;19.10;99.90;;;;;;6203305;28;20241;-61
2022/09/16 00:03:58;;;;;;;3.60;2.87;;;19.10;99.90;;;;;;6203565;28;20233;-61
2022/09/16 00:07:02;;;;;;;5.27;3.33;;;19.10;99.90;;;;;;6202804;28;20288;-61
2022/09/16 00:10:06;;;;;;;3.77;2.80;;;19.10;99.90;;;;;;6203366;28;20701;-61
2022/09/16 00:13:10;;;;;;;5.23;2.90;;;19.10;99.90;;;;;;6203268;28;20292;-61
2022/09/16 00:16:19;;;;;;;5.90;2.93;;;19.10;99.90;;;;;;6203456;28;20307;-61
2022/09/16 00:19:22;;;;;;;6.13;2.43;;;19.10;99.90;;;;;;6203557;28;20229;-61
2022/09/16 00:22:27;;;;;;;3.77;2.53;;;19.10;99.90;;;;;;6203613;28;20253;-62
2022/09/16 00:25:32;;;;;;;2.63;2.43;;;19.20;99.90;;;;;;6202581;28;20246;-62
2022/09/16 00:28:35;;;;;;;4.27;2.50;;;19.20;99.90;;;;;;6198794;28;20617;-61
2022/09/16 00:31:40;;;;;;;3.53;2.93;;;19.20;99.90;;;;;;6202756;28;20242;-61
2022/09/16 00:34:43;;;;;;;4.10;2.20;;;19.20;99.90;;;;;;6202542;28;20328;-61
2022/09/16 00:37:46;;;;;;;2.63;2.27;;;19.20;99.90;;;;;;6204244;28;20237;-61
2022/09/16 00:40:50;;;;;;;2.57;2.37;;;19.20;99.90;;;;;;6203700;28;20237;-62
2022/09/16 00:43:56;;;;;;;6.57;3.00;;;19.20;99.90;;;;;;6202579;28;20284;-62
2022/09/16 00:47:01;;;;;;;6.07;2.67;;;19.30;99.90;;;;;;6202711;28;20241;-62
2022/09/16 00:50:09;;;;;;;5.43;2.77;;;19.20;99.90;;;;;;6202791;28;20284;-63
2022/09/16 00:53:17;;;;;;;3.63;2.67;;;19.20;99.90;;;;;;6202695;28;20253;-63
2022/09/16 00:56:22;;;;;;;3.30;2.13;;;19.20;99.90;;;;;;6202553;28;20226;-63
2022/09/16 00:59:31;;;;;;;4.70;2.40;;;19.20;99.90;;;;;;6202671;28;20662;-63
2022/09/16 01:02:36;;;;;;;6.00;2.80;;;19.20;99.90;;;;;;6202541;28;20229;-63
2022/09/16 01:05:39;;;;;;;8.80;3.20;;;19.20;99.90;;;;;;6202125;28;20300;-63
2022/09/16 01:08:43;;;;;;;2.70;2.43;;;19.20;99.90;;;;;;6201988;28;20226;-63
2022/09/16 01:11:46;;;;;;;4.73;3.00;;;19.20;99.90;;;;;;6202073;28;20248;-63
2022/09/16 01:14:57;;;;;;;2.60;2.40;;;19.20;99.90;;;;;;6202349;28;20275;-63
2022/09/16 01:18:11;;;;;;;4.20;2.33;;;19.30;99.90;;;;;;6201003;28;20237;-63
2022/09/16 01:21:35;;;;;;;3.97;2.33;;;19.20;99.90;;;;;;6202417;28;20234;-63
2022/09/16 01:24:52;;;;;;;4.50;2.97;;;19.20;99.90;;;;;;6201491;28;20242;-63
2022/09/16 01:28:17;;;;;;;2.83;2.53;;;19.20;99.90;;;;;;6201873;28;20273;-63
2022/09/16 01:31:28;;;;;;;2.97;2.67;;;19.20;99.90;;;;;;6201591;28;20253;-63
2022/09/16 01:34:43;;;;;;;4.50;2.30;;;19.20;99.90;;;;;;6201225;28;20238;-62
2022/09/16 01:37:54;;;;;;;3.33;3.00;;;19.10;99.90;;;;;;6201536;28;20729;-62
2022/09/16 01:41:04;;;;;;;3.33;2.73;;;19.10;99.90;;;;;;6201459;28;20246;-62
2022/09/16 01:44:19;;;;;;;3.80;2.90;;;19.10;99.90;;;;;;6201283;28;20700;-62
2022/09/16 01:47:33;;;;;;;6.03;2.43;;;19.00;99.90;;;;;;6201422;28;20296;-62
2022/09/16 01:50:42;;;;;;;3.10;2.43;;;19.10;99.90;;;;;;6201531;28;20237;-62
2022/09/16 01:53:51;;;;;;;2.50;1.80;;;19.10;99.90;;;;;;6201387;28;20234;-62
2022/09/16 01:57:00;;;;;;;2.60;2.40;;;19.10;99.90;;;;;;6201590;28;20225;-62
2022/09/16 02:00:07;;;;;;;5.90;2.63;;;19.10;99.90;;;;;;6201453;28;20234;-63
2022/09/16 02:03:15;;;;;;;4.27;2.20;;;19.10;99.90;;;;;;6206699;28;20226;-63
2022/09/16 02:06:22;;;;;;;5.03;2.50;;;19.10;99.90;;;;;;6200910;28;20245;-63
2022/09/16 02:09:31;;;;;;;4.93;2.17;;;19.10;99.90;;;;;;6211591;28;20257;-63
2022/09/16 02:12:39;;;;;;;3.00;2.20;;;19.00;99.90;;;;;;6225325;28;20322;-63
2022/09/16 02:15:43;;;;;;;6.10;2.70;;;19.00;99.90;;;;;;6225442;28;20237;-62
2022/09/16 02:18:52;;;;;;;8.17;2.07;;;19.00;99.90;;;;;;6225211;28;20229;-63
2022/09/16 02:21:59;;;;;;;3.37;2.00;;;19.00;99.90;;;;;;6225380;28;20236;-62
2022/09/16 02:25:05;;;;;;;3.73;2.30;;;19.00;99.90;;;;;;6225268;28;20241;-63
2022/09/16 02:28:13;;;;;;;2.20;2.00;;;19.00;99.90;;;;;;6225357;28;20241;-62
2022/09/16 02:31:20;;;;;;;2.57;2.37;;;19.00;99.90;;;;;;6229840;28;20240;-62
2022/09/16 02:34:30;;;;;;;6.53;2.17;;;18.90;99.90;;;;;;6225202;28;20240;-62
2022/09/16 02:37:39;;;;;;;2.17;1.97;;;18.90;99.90;;;;;;6230003;28;20221;-63
2022/09/16 02:40:46;;;;;;;2.90;2.33;;;18.90;99.90;;;;;;6229698;28;20233;-63
2022/09/16 02:43:49;;;;;;;5.73;2.53;;;18.90;99.90;;;;;;6229654;28;20313;-63
2022/09/16 02:47:01;;;;;;;1.83;1.73;;;18.90;99.90;;;;;;6229784;28;20970;-63
2022/09/16 02:50:13;;;;;;;3.83;2.20;;;18.90;99.90;;;;;;6229456;28;20220;-63
2022/09/16 02:53:28;;;;;;;3.13;2.20;;;18.80;99.90;;;;;;6229934;28;20198;-63
2022/09/16 02:56:33;;;;;;;3.40;1.97;;;18.80;99.90;;;;;;6229684;28;20245;-63
2022/09/16 02:59:38;;;;;;;2.50;2.30;;;18.70;99.90;;;;;;6214862;28;20598;-63
2022/09/16 03:02:41;;;;;;;3.20;2.10;;;18.70;99.90;;;;;;6203055;28;20233;-63
2022/09/16 03:06:10;;;;;;;3.23;2.00;;;18.70;99.90;;;;;;6202599;28;20398;-63
2022/09/16 03:09:16;;;;;;;1.67;1.57;;;18.70;99.90;;;;;;6203105;28;20226;-63
2022/09/16 03:12:38;;;;;;;2.60;2.23;;;18.80;99.90;;;;;;6203609;28;20236;-63
2022/09/16 03:15:55;;;;;;;4.97;2.17;;;18.80;99.90;;;;;;6204387;28;20233;-63
2022/09/16 03:19:11;;;;;;;4.53;2.30;;;18.80;99.90;;;;;;6204467;28;20686;-64
2022/09/16 03:22:24;;;;;;;5.50;1.90;;;18.80;99.90;;;;;;6204666;28;20234;-63
2022/09/16 03:25:40;;;;;;;5.13;1.80;;;18.80;99.90;;;;;;6204133;28;20249;-63
2022/09/16 03:28:48;;;;;;;3.47;2.13;;;18.80;99.90;;;;;;6204398;28;20316;-63
2022/09/16 03:31:58;;;;;;;3.60;1.90;;;18.80;99.90;;;;;;6204342;28;20245;-63
2022/09/16 03:35:04;;;;;;;2.33;1.87;;;18.80;99.90;;;;;;6204014;28;20854;-63
2022/09/16 03:38:10;;;;;;;1.80;1.70;;;18.80;99.90;;;;;;6203627;28;20222;-63
2022/09/16 03:41:15;;;;;;;2.70;1.77;;;18.70;99.90;;;;;;6203099;28;20759;-63
2022/09/16 03:44:18;;;;;;;4.43;2.47;;;18.80;99.90;;;;;;6203626;28;20257;-64
2022/09/16 03:47:21;;;;;;;3.20;2.07;;;18.80;99.90;;;;;;6204349;28;20262;-63
2022/09/16 03:50:24;;;;;;;3.57;2.00;;;18.80;99.90;;;;;;6203810;28;20837;-63
2022/09/16 03:53:29;;;;;;;3.63;2.10;;;18.80;99.90;;;;;;6203800;28;20468;-63
2022/09/16 03:56:32;;;;;;;1.97;1.77;;;18.70;99.90;;;;;;6203900;28;20233;-63
2022/09/16 03:59:35;;;;;;;2.47;2.13;;;18.70;99.90;;;;;;6203763;28;20693;-63
2022/09/16 04:02:38;;;;;;;1.80;1.70;;;18.80;99.90;;;;;;6203573;28;20234;-63
2022/09/16 04:05:42;;;;;;;1.93;1.73;;;18.80;99.90;;;;;;6203964;28;20230;-62
2022/09/16 04:08:49;;;;;;;3.70;1.80;;;18.80;99.90;;;;;;6203595;28;20229;-62
2022/09/16 04:11:52;;;;;;;3.90;2.00;;;18.80;99.90;;;;;;6203628;28;20245;-63
2022/09/16 04:14:55;;;;;;;4.60;2.30;;;18.90;99.90;;;;;;6203334;28;20631;-63
2022/09/16 04:18:00;;;;;;;5.20;2.37;;;18.80;99.90;;;;;;6203476;28;20233;-63
2022/09/16 04:21:05;;;;;;;5.13;2.60;;;18.80;99.90;;;;;;6203677;28;20645;-63
2022/09/16 04:24:09;;;;;;;2.07;1.90;;;18.80;99.90;;;;;;6203040;28;20234;-62
2022/09/16 04:27:15;;;;;;;4.70;2.90;;;18.90;99.90;;;;;;6203330;28;20229;-61
2022/09/16 04:30:19;;;;;;;8.87;2.87;;;18.90;99.90;;;;;;6202676;28;20264;-62
2022/09/16 04:33:22;;;;;;;3.63;2.30;;;18.90;99.90;;;;;;6203005;28;20230;-61
2022/09/16 04:36:25;;;;;;;4.20;2.40;;;18.90;99.90;;;;;;6202589;28;20249;-62
2022/09/16 04:39:30;;;;;;;2.50;2.17;;;18.80;99.90;;;;;;6198457;28;20245;-63
2022/09/16 04:42:33;;;;;;;2.87;2.07;;;18.70;99.90;;;;;;6202888;28;20229;-62
2022/09/16 04:45:36;;;;;;;2.57;2.37;;;18.60;99.90;;;;;;6202903;28;20244;-61
2022/09/16 04:48:39;;;;;;;5.40;3.00;;;18.60;99.90;;;;;;6213125;28;20880;-62
2022/09/16 04:51:42;;;;;;;4.60;3.23;;;18.50;99.90;;;;;;6226838;28;20491;-62
2022/09/16 04:54:47;;;;;;;4.77;2.40;;;18.40;99.90;;;;;;6226669;28;20755;-62
2022/09/16 04:57:51;;;;;;;5.47;2.70;;;18.30;99.90;;;;;;6226707;28;20833;-62
2022/09/16 05:00:54;;;;;;;3.00;2.67;;;18.20;99.90;;;;;;6215170;28;20685;-62
2022/09/16 05:03:59;;;;;;;2.13;1.90;;;18.20;99.90;;;;;;6214755;28;20480;-62
2022/09/16 05:07:02;;;;;;;3.43;2.30;;;18.00;99.90;;;;;;6226618;28;20783;-62
2022/09/16 05:10:08;;;;;;;3.50;2.10;;;18.00;99.90;;;;;;6216649;28;20547;-62
2022/09/16 05:13:11;;;;;;;5.73;3.00;;;18.00;99.90;;;;;;6210935;28;20528;-62
2022/09/16 05:16:16;;;;;;;4.43;3.23;;;17.90;99.90;;;;;;6201865;28;20539;-62
2022/09/16 05:19:20;;;;;;;3.83;2.80;;;17.90;99.90;;;;;;6217959;28;20514;-62
2022/09/16 05:22:23;;;;;;;3.47;2.23;;;18.00;99.90;;;;;;6212317;28;20479;-62
2022/09/16 05:25:27;;;;;;;4.37;2.50;;;18.00;99.90;;;;;;6213868;28;20477;-62
2022/09/16 05:28:30;;;;;;;2.40;2.20;;;18.00;99.90;;;;;;6209849;28;20530;-62
2022/09/16 05:31:36;;;;;;;2.90;2.53;;;17.90;99.90;;;;;;6204108;28;20575;-62
2022/09/16 05:34:39;;;;;;;3.30;3.00;;;18.00;99.90;;;;;;6201483;28;20489;-62
2022/09/16 05:37:42;;;;;;;2.73;2.43;;;17.90;99.90;;;;;;6207552;28;20538;-62
2022/09/16 05:40:47;;;;;;;3.50;2.43;;;17.90;99.90;;;;;;6214364;28;20487;-62
2022/09/16 05:43:50;;;;;;;2.53;2.33;;;17.90;99.90;;;;;;6220108;28;20522;-63
2022/09/16 05:46:54;;;;;;;2.40;2.00;;;17.90;99.90;;;;;;6216510;28;20475;-62
2022/09/16 05:49:57;;;;;;;3.23;2.63;;;18.00;99.90;;;;;;6225366;28;20241;-63
2022/09/16 05:53:00;;;;;;;3.03;2.80;;;18.10;99.90;;;;;;6225456;28;20824;-63
2022/09/16 05:56:07;;;;;;;5.13;3.10;;;18.20;99.90;;;;;;6226000;28;20237;-63
2022/09/16 05:59:11;;;;;;;2.70;2.50;;;18.20;99.90;;;;;;6225470;28;20844;-63
2022/09/16 06:02:15;;;;;;;3.57;3.00;;;18.20;99.90;;;;;;6215631;28;20740;-62
2022/09/16 06:05:18;;;;;;;6.23;2.80;;;18.20;99.90;;;;;;6203603;28;20457;-62
2022/09/16 06:08:21;;;;;;;5.00;4.30;;;18.20;99.90;;;;;;6200967;28;20806;-62
2022/09/16 06:11:27;;;;;;;3.80;2.93;;;18.10;99.90;;;;;;6201275;28;20790;-62
2022/09/16 06:14:30;;;;;;;3.10;2.80;;;18.10;99.90;;;;;;6200942;28;20481;-62
2022/09/16 06:17:34;;;;;;;3.23;3.00;;;18.10;99.90;;;;;;6206368;28;21009;-63
2022/09/16 06:20:37;;;;;;;5.80;3.70;;;18.00;99.90;;;;;;6209424;28;20475;-62
2022/09/16 06:23:40;;;;;;;5.30;3.10;;;17.90;99.90;;;;;;6209679;28;20979;-62
2022/09/16 06:26:46;;;;;;;4.30;3.63;;;18.00;99.90;;;;;;6206700;28;20469;-64
2022/09/16 06:29:49;;;;;;;4.37;4.07;;;18.00;99.90;;;;;;6225430;28;20534;-64
2022/09/16 06:32:52;;;;;;;7.40;4.37;;;17.90;99.90;;;;;;6224552;28;20899;-63
2022/09/16 06:35:56;;;;;;;4.03;3.73;;;17.80;99.90;;;;;;6223608;28;20483;-64
2022/09/16 06:39:00;;;;;;;3.60;3.30;;;17.70;99.90;;;;;;6223745;28;20472;-64
2022/09/16 06:42:07;;;;;;;4.40;4.00;;;17.70;99.90;;;;;;6223818;28;20476;-63
2022/09/16 06:45:11;;;;;;;4.73;4.10;;;17.60;99.90;;;;;;6223376;28;21235;-64
2022/09/16 06:48:14;;;;;;;4.70;4.00;;;17.50;99.90;;;;;;6219589;28;20495;-64
2022/09/16 06:51:19;;;;;;;4.70;4.30;;;17.60;99.90;;;;;;6224916;28;20983;-63
2022/09/16 06:54:22;;;;;;;5.00;4.27;;;17.40;99.90;;;;;;6224905;28;20483;-63
2022/09/16 06:57:27;;;;;;;4.47;3.90;;;17.50;99.90;;;;;;6224965;28;20468;-64
2022/09/16 07:00:30;;;;;;;4.10;3.70;;;17.40;99.90;;;;;;6224664;28;20846;-63
2022/09/16 07:03:33;;;;;;;3.80;3.50;;;17.40;99.90;;;;;;6225341;28;20471;-65
2022/09/16 07:06:37;;;;;;;3.87;3.57;;;17.50;99.90;;;;;;6224715;28;20960;-63
2022/09/16 07:10:00;;;;;;;4.70;4.30;;;17.50;99.90;;;;;;6224811;28;20548;-64
2022/09/16 07:13:05;;;;;;;4.43;3.47;;;17.40;99.90;;;;;;6224757;28;20482;-64
2022/09/16 07:16:10;;;;;;;5.13;4.67;;;17.30;99.90;;;;;;6225869;28;20487;-63
2022/09/16 07:19:16;;;;;;;5.23;4.73;;;17.30;99.90;;;;;;6229033;28;20472;-64
2022/09/16 07:22:19;;;;;;;4.70;4.40;;;17.20;99.90;;;;;;6229062;28;20475;-64
2022/09/16 07:25:22;;;;;;;5.00;4.60;;;17.10;99.90;;;;;;6228786;28;20475;-64
2022/09/16 07:28:26;;;;;;;5.40;4.90;;;17.10;99.90;;;;;;6228665;28;20495;-64
2022/09/16 07:31:32;;;;;;;4.70;4.30;;;17.10;99.90;;;;;;6228890;28;20491;-64
2022/09/16 07:34:35;;;;;;;3.60;3.30;;;17.10;99.90;;;;;;6228519;28;20799;-64
2022/09/16 07:37:38;;;;;;;4.70;4.30;;;17.00;99.90;;;;;;6228319;28;20475;-63
2022/09/16 07:40:44;;;;;;;4.20;3.90;;;17.00;99.90;;;;;;6228821;28;20480;-64
2022/09/16 07:43:49;;;;;;;4.90;3.70;;;17.10;99.90;;;;;;6228818;28;20518;-64
2022/09/16 07:46:52;;;;;;;4.33;4.03;;;17.30;99.90;;;;;;6228308;28;20476;-64
2022/09/16 07:49:56;;;;;;;4.10;3.80;;;17.30;99.90;;;;;;6228077;28;20585;-65
2022/09/16 07:52:59;;;;;;;5.37;4.30;;;17.40;99.90;;;;;;6223309;28;20551;-64
2022/09/16 07:56:03;;;;;;;3.80;3.50;;;17.40;99.90;;;;;;6228212;28;20480;-64
2022/09/16 07:59:10;;;;;;;4.70;4.27;;;17.40;99.90;;;;;;6228029;28;20491;-63
2022/09/16 08:02:19;;;;;;;5.50;5.10;;;17.20;99.90;;;;;;6228396;28;20881;-63
2022/09/16 08:05:22;;;;;;;4.47;4.07;;;17.20;99.90;;;;;;6228132;28;20559;-63
2022/09/16 08:08:26;;;;;;;5.20;4.43;;;17.10;99.90;;;;;;6228225;28;20487;-63
2022/09/16 08:11:30;;;;;;;3.93;3.63;;;17.10;99.90;;;;;;6228295;28;20931;-64
2022/09/16 08:14:35;;;;;;;5.53;5.03;;;17.10;99.90;;;;;;6228287;28;20480;-64
2022/09/16 08:17:38;;;;;;;5.07;4.53;;;17.10;99.90;;;;;;6228640;28;20468;-64
2022/09/16 08:20:41;;;;;;;4.10;3.80;;;17.10;99.90;;;;;;6227807;28;20471;-65
2022/09/16 08:23:45;;;;;;;7.03;4.43;;;17.00;99.90;;;;;;6227489;28;20796;-63
2022/09/16 08:26:48;;;;;;;4.20;3.90;;;17.10;99.90;;;;;;6227302;28;20963;-63
2022/09/16 08:29:52;;;;;;;5.57;5.07;;;17.10;99.90;;;;;;6227599;28;20532;-63
2022/09/16 08:32:57;;;;;;;5.50;4.97;;;17.10;99.90;;;;;;6227380;28;20472;-63
2022/09/16 08:36:01;;;;;;;5.37;4.97;;;17.10;99.90;;;;;;6227014;28;20476;-64
2022/09/16 08:39:04;;;;;;;6.37;5.70;;;17.00;99.90;;;;;;6227555;28;20472;-63
2022/09/16 08:42:31;;;;;;;5.40;4.90;;;17.00;99.90;;;;;;6227111;28;20471;-63
2022/09/16 08:45:42;;;;;;;5.57;5.17;;;17.00;99.90;;;;;;6226648;28;21038;-63
2022/09/16 08:48:54;;;;;;;7.33;5.60;;;17.00;99.90;;;;;;6226986;28;20488;-63
2022/09/16 08:52:00;;;;;;;6.57;5.97;;;16.90;99.90;;;;;;6227058;28;20507;-63
2022/09/16 08:55:08;;;;;;;7.83;4.53;;;16.90;99.90;;;;;;6222011;28;20476;-63
2022/09/16 08:58:16;;;;;;;5.73;5.23;;;16.80;99.90;;;;;;6226848;28;20481;-63
2022/09/16 09:01:28;;;;;;;5.23;4.83;;;16.90;99.90;;;;;;6226695;28;20476;-63
2022/09/16 09:04:32;;;;;;;6.37;4.70;;;16.80;99.90;;;;;;6226533;28;20480;-63
2022/09/16 09:07:48;;;;;;;5.57;5.07;;;16.60;99.90;;;;;;6227418;28;20471;-63
2022/09/16 09:10:56;;;;;;;5.10;4.70;;;16.30;99.90;;;;;;6227000;28;20488;-63
2022/09/16 09:14:15;;;;;;;5.67;4.80;;;16.30;99.90;;;;;;6227195;28;20483;-63
2022/09/16 09:17:28;;;;;;;4.90;4.50;;;16.20;99.90;;;;;;6227687;28;20445;-63
2022/09/16 09:20:44;;;;;;;6.43;4.73;;;16.20;99.90;;;;;;6212641;28;20477;-64
2022/09/16 09:24:05;;;;;;;5.17;4.67;;;16.20;99.90;;;;;;6201685;28;20469;-62
2022/09/16 09:27:14;;;;;;;5.23;4.57;;;16.30;99.90;;;;;;6202015;28;20477;-64
2022/09/16 09:30:21;;;;;;;6.30;5.23;;;16.20;99.90;;;;;;6201698;28;20816;-64
2022/09/16 09:33:45;;;;;;;5.40;4.90;;;16.30;99.90;;;;;;6203928;28;21011;-63
2022/09/16 09:37:13;;;;;;;4.67;3.97;;;16.30;99.90;;;;;;6201432;28;20771;-64
2022/09/16 09:40:23;;;;;;;4.70;4.30;;;16.20;99.90;;;;;;6200987;28;20464;-65
2022/09/16 09:43:34;;;;;;;4.80;4.30;;;16.30;99.90;;;;;;6201362;28;20519;-66
2022/09/16 09:46:41;;;;;;;4.57;4.17;;;16.40;99.90;;;;;;6201435;28;20473;-63
2022/09/16 09:49:49;;;;;;;4.97;4.47;;;16.50;99.90;;;;;;6201129;28;20522;-63
2022/09/16 09:53:12;;;;;;;6.27;5.67;;;16.50;99.90;;;;;;6201580;28;20492;-65
2022/09/16 09:56:19;;;;;;;4.77;4.37;;;16.50;99.90;;;;;;6172567;28;20496;-66
2022/09/16 09:59:29;;;;;;;4.73;4.33;;;16.50;99.90;;;;;;6177100;28;20438;-63
2022/09/16 10:02:33;;;;;;;4.47;3.97;;;16.30;99.90;;;;;;6195290;28;20475;-63
2022/09/16 10:05:38;;;;;;;4.53;4.20;;;16.10;99.90;;;;;;6211412;28;20477;-63
2022/09/16 10:08:46;;;;;;;3.30;3.00;;;16.00;99.90;;;;;;6206605;28;20755;-63
2022/09/16 10:11:51;;;;;;;3.13;2.83;;;16.00;99.90;;;;;;6201277;28;21076;-63
2022/09/16 10:14:54;;;;;;;2.87;2.67;;;15.80;99.90;;;;;;6200783;28;20492;-63
2022/09/16 10:18:02;;;;;;;3.73;3.43;;;15.90;99.90;;;;;;6200884;28;20795;-65
2022/09/16 10:21:09;;;;;;;4.50;4.10;;;16.00;99.90;;;;;;6201051;28;20484;-64
2022/09/16 10:24:31;;;;;;;3.90;3.60;;;16.10;99.90;;;;;;6201146;28;20473;-64
2022/09/16 10:27:37;;;;;;;5.30;4.47;;;16.10;99.90;;;;;;6206037;28;20482;-64
2022/09/16 10:30:45;;;;;;;4.83;4.43;;;16.10;99.90;;;;;;6224762;28;20494;-63
2022/09/16 10:33:49;;;;;;;3.97;3.67;;;16.30;99.90;;;;;;6224569;28;20480;-63
2022/09/16 10:37:02;;;;;;;4.83;3.40;;;16.40;99.90;;;;;;6225262;28;20472;-63
2022/09/16 10:40:16;;;;;;;4.20;3.87;;;16.30;99.90;;;;;;6224961;28;20494;-64
2022/09/16 10:43:19;;;;;;;5.20;4.70;;;16.40;99.90;;;;;;6224642;28;20472;-63
2022/09/16 10:46:22;;;;;;;5.20;4.70;;;16.50;99.90;;;;;;6224688;28;20483;-63
2022/09/16 10:49:35;;;;;;;5.27;4.60;;;16.50;99.90;;;;;;6224685;28;20480;-63
2022/09/16 10:52:44;;;;;;;7.07;4.90;;;16.50;99.90;;;;;;6229716;28;20480;-66
2022/09/16 10:55:57;;;;;;;4.93;4.53;;;16.60;99.90;;;;;;6224518;28;20800;-65
2022/09/16 10:59:05;;;;;;;5.90;5.40;;;16.70;99.90;;;;;;6229697;28;20479;-66
2022/09/16 11:02:18;;;;;;;5.43;4.80;;;16.90;99.90;;;;;;6229571;28;20467;-66
2022/09/16 11:05:33;;;;;;;5.63;5.13;;;16.80;99.90;;;;;;6229365;28;20481;-66
2022/09/16 11:08:50;;;;;;;4.87;4.47;;;16.70;99.90;;;;;;6230010;28;20487;-65
2022/09/16 11:12:09;;;;;;;6.30;4.17;;;16.70;99.90;;;;;;6228936;28;20487;-64
2022/09/16 11:15:24;;;;;;;5.33;4.83;;;16.50;99.90;;;;;;6229316;28;20477;-63
2022/09/16 11:18:40;;;;;;;5.33;4.83;;;16.40;99.90;;;;;;6229118;28;20476;-63
2022/09/16 11:21:56;;;;;;;4.87;4.37;;;16.50;99.90;;;;;;6213510;28;20480;-63
2022/09/16 11:25:34;;;;;;;7.43;4.60;;;16.70;99.90;;;;;;6204450;28;20476;-62
2022/09/16 11:28:47;;;;;;;4.80;4.40;;;16.80;99.90;;;;;;6204610;28;20480;-61
2022/09/16 11:31:59;;;;;;;5.57;5.07;;;16.70;99.90;;;;;;6204533;28;20496;-62
2022/09/16 11:35:25;;;;;;;6.03;5.10;;;16.70;99.90;;;;;;6203893;28;20827;-63
2022/09/16 11:38:37;;;;;;;5.10;4.60;;;16.90;99.90;;;;;;6204279;28;20476;-63
2022/09/16 11:41:56;;;;;;;3.97;3.70;;;17.10;99.90;;;;;;6203586;28;20949;-63
2022/09/16 11:45:10;;;;;;;5.07;4.57;;;17.40;99.90;;;;;;6203925;28;20492;-65
2022/09/16 11:48:36;;;;;;;4.40;4.00;;;17.50;99.90;;;;;;6203866;28;20469;-68
2022/09/16 11:51:57;;;;;;;4.23;3.93;;;17.40;99.90;;;;;;6204021;28;20478;-66
2022/09/16 11:55:19;;;;;;;4.40;4.00;;;17.30;99.90;;;;;;6203934;28;20477;-65
2022/09/16 11:58:35;;;;;;;4.70;4.30;;;17.10;99.90;;;;;;6203986;28;20484;-65
2022/09/16 12:01:43;;;;;;;4.70;4.30;;;16.90;99.90;;;;;;6202765;28;20469;-66
2022/09/16 12:04:52;;;;;;;4.60;4.27;;;16.80;99.90;;;;;;6203843;28;20477;-66
2022/09/16 12:08:05;;;;;;;4.37;4.00;;;16.80;99.90;;;;;;6194331;28;20493;-65
2022/09/16 12:11:18;;;;;;;5.00;4.60;;;16.70;99.90;;;;;;6203236;28;20803;-64
2022/09/16 12:14:30;;;;;;;4.53;4.13;;;16.80;99.90;;;;;;6203970;28;20785;-65
2022/09/16 12:17:36;;;;;;;4.27;3.90;;;16.70;99.90;;;;;;6204109;28;20953;-63
2022/09/16 12:20:44;;;;;;;4.10;3.73;;;16.50;99.90;;;;;;6203111;28;20465;-63
2022/09/16 12:23:51;;;;;;;4.00;3.70;;;16.40;99.90;;;;;;6203517;28;20469;-64
2022/09/16 12:27:01;;;;;;;5.20;4.90;;;16.30;99.90;;;;;;6203505;28;20472;-64
2022/09/16 12:30:14;;;;;;;4.77;4.37;;;16.40;99.90;;;;;;6203303;28;20475;-65
2022/09/16 12:33:22;;;;;;;5.30;4.80;;;16.20;99.90;;;;;;6203358;28;21002;-66
2022/09/16 12:36:30;;;;;;;5.33;4.83;;;16.20;99.90;;;;;;6203005;28;20492;-65
2022/09/16 12:39:33;;;;;;;5.30;4.80;;;16.30;99.90;;;;;;6203624;28;20488;-64
2022/09/16 12:43:01;;;;;;;4.80;4.40;;;16.50;99.90;;;;;;6202985;28;20817;-65
2022/09/16 12:46:32;;;;;;;5.10;4.70;;;16.50;99.90;;;;;;6202481;28;20945;-64
2022/09/16 12:50:12;;;;;;;4.60;4.03;;;16.50;99.90;;;;;;6202015;28;20481;-63
2022/09/16 12:53:54;;;;;;;4.53;4.20;;;16.60;99.90;;;;;;6202679;28;20441;-65
2022/09/16 12:57:14;;;;;;;4.60;3.97;;;16.70;99.90;;;;;;6202631;28;20465;-63
2022/09/16 13:00:20;;;;;;;5.07;3.10;;;16.80;99.90;;;;;;6202121;28;20476;-62
2022/09/16 13:03:30;;;;;;;3.47;3.17;;;16.90;99.90;;;;;;6202246;28;20473;-62
2022/09/16 13:06:37;;;;;;;2.90;2.70;;;16.80;99.90;;;;;;6202183;28;20473;-62
2022/09/16 13:09:40;;;;;;;4.23;3.70;;;16.80;99.90;;;;;;6202133;28;20822;-62
2022/09/16 13:12:51;;;;;;;4.03;3.73;;;16.80;99.90;;;;;;6201168;28;20496;-62
2022/09/16 13:15:56;;;;;;;5.10;4.60;;;16.60;99.90;;;;;;6201502;28;20473;-65
2022/09/16 13:19:26;;;;;;;3.67;3.37;;;16.40;99.90;;;;;;6201916;28;20619;-65
2022/09/16 13:22:32;;;;;;;3.80;3.50;;;16.30;99.90;;;;;;6195012;28;20464;-67
2022/09/16 13:25:48;;;;;;;5.07;4.47;;;16.00;99.90;;;;;;6201585;28;20504;-67
2022/09/16 13:28:51;;;;;;;4.30;3.90;;;15.90;99.90;;;;;;6201411;28;20477;-67
2022/09/16 13:31:54;;;;;;;5.30;4.80;;;15.80;99.90;;;;;;6201322;28;20491;-67
2022/09/16 13:35:21;;;;;;;5.17;4.10;;;15.70;99.90;;;;;;6201374;28;20491;-66
2022/09/16 13:38:37;;;;;;;4.40;4.03;;;15.70;99.90;;;;;;6201864;28;20449;-66
2022/09/16 13:41:42;;;;;;;5.10;4.70;;;15.70;99.90;;;;;;6201234;28;20465;-67
2022/09/16 13:44:45;;;;;;;4.23;3.83;;;15.70;99.90;;;;;;6201253;28;20803;-67
2022/09/16 13:47:51;;;;;;;5.00;4.43;;;15.70;99.90;;;;;;6201122;28;20480;-66
2022/09/16 13:50:59;;;;;;;3.60;3.30;;;15.80;99.90;;;;;;6201119;28;20480;-66
2022/09/16 13:54:03;;;;;;;4.10;3.57;;;15.80;99.90;;;;;;6200742;28;20881;-68
2022/09/16 13:57:21;;;;;;;5.70;3.87;;;15.80;99.90;;;;;;6201003;28;20826;-67
2022/09/16 14:09:25;;;;;;;;;;;;;;;;;;;;;
2022/09/16 14:17:41;;;;;;;6.10;4.20;;;15.70;99.90;;;;;;6036676;29;20858;-68
2022/09/16 14:21:00;;;;;;;3.57;3.27;;;15.60;99.90;;;;;;6063531;29;20877;-70
2022/09/16 14:24:18;;;;;;;3.97;3.60;;;15.80;99.90;;;;;;6079753;29;20823;-69
2022/09/16 14:27:28;;;;;;;6.27;5.30;;;15.80;99.90;;;;;;6091205;29;20484;-70
2022/09/16 14:30:32;;;;;;;4.20;3.80;;;15.90;99.90;;;;;;6096625;29;20488;-70
2022/09/16 14:33:40;;;;;;;3.47;3.17;;;16.00;99.90;;;;;;6093185;29;20489;-70
2022/09/16 14:36:45;;;;;;;3.50;3.20;;;16.10;99.90;;;;;;6091718;29;20473;-70
2022/09/16 14:39:54;;;;;;;3.47;3.27;;;16.10;99.90;;;;;;6084078;29;20622;-70
2022/09/16 14:43:02;;;;;;;5.30;3.80;;;16.00;99.90;;;;;;6198137;28;20507;-71
2022/09/16 14:46:07;;;;;;;4.37;3.50;;;15.90;99.90;;;;;;6205194;28;20957;-71
2022/09/16 14:49:12;;;;;;;3.50;3.20;;;15.90;99.90;;;;;;6205327;28;20499;-70
2022/09/16 14:52:19;;;;;;;3.90;3.60;;;15.90;99.90;;;;;;6205088;28;20477;-70
2022/09/16 14:55:28;;;;;;;4.50;4.10;;;15.90;99.90;;;;;;6205311;28;20941;-69
2022/09/16 14:58:33;;;;;;;3.20;2.87;;;15.80;99.90;;;;;;6205389;28;20996;-70
2022/09/16 15:01:37;;;;;;;4.10;3.77;;;15.80;99.90;;;;;;6204691;28;20469;-69
2022/09/16 15:04:43;;;;;;;4.30;3.90;;;15.70;99.90;;;;;;6205183;28;20480;-69
2022/09/16 15:07:48;;;;;;;4.23;3.53;;;15.50;99.90;;;;;;6205068;28;20492;-69
2022/09/16 15:11:15;;;;;;;5.57;3.70;;;15.40;99.90;;;;;;6204307;28;20535;-70
2022/09/16 15:14:39;;;;;;;4.67;4.07;;;15.40;99.90;;;;;;6204451;28;20492;-71
2022/09/16 15:17:42;;;;;;;4.30;3.90;;;15.50;99.90;;;;;;6204482;28;20480;-71
2022/09/16 15:20:52;;;;;;;5.73;3.13;;;15.50;99.90;;;;;;6214359;28;20924;-71
2022/09/16 15:23:57;;;;;;;2.40;2.20;;;15.40;99.90;;;;;;6203262;28;20976;-70
2022/09/16 15:27:02;;;;;;;2.00;1.90;;;15.40;99.90;;;;;;6204687;28;20528;-70
2022/09/16 15:30:06;;;;;;;2.30;2.10;;;15.30;99.90;;;;;;6204646;28;20479;-70
2022/09/16 15:33:26;;;;;;;3.87;2.97;;;15.20;99.90;;;;;;6204246;28;20566;-69
2022/09/16 15:36:41;;;;;;;2.17;2.03;;;15.10;99.90;;;;;;6202580;28;20815;-68
2022/09/16 15:39:44;;;;;;;2.27;2.07;;;14.90;99.90;;;;;;6204200;28;20469;-73
2022/09/16 15:43:05;;;;;;;3.40;2.37;;;14.90;99.90;;;;;;6204682;28;20481;-68
2022/09/16 15:46:15;;;;;;;2.57;2.00;;;14.80;99.90;;;;;;6205245;28;20480;-67
2022/09/16 15:49:19;;;;;;;2.60;2.30;;;14.90;99.90;;;;;;6209874;28;20567;-68
2022/09/16 15:52:22;;;;;;;2.67;2.47;;;14.90;99.90;;;;;;6210840;28;20571;-66
2022/09/16 15:55:30;;;;;;;2.13;2.03;;;14.90;99.90;;;;;;6210131;28;20494;-67
2022/09/16 15:58:42;;;;;;;2.87;2.40;;;15.00;99.90;;;;;;6208611;28;20477;-68
2022/09/16 16:01:49;;;;;;;2.50;2.30;;;15.00;99.90;;;;;;6204119;28;20477;-67
2022/09/16 16:05:06;;;;;;;3.17;2.87;;;15.00;99.90;;;;;;6204092;28;20481;-67
2022/09/16 16:08:09;;;;;;;2.20;2.10;;;15.00;99.90;;;;;;6203288;28;20461;-67
2022/09/16 16:11:14;;;;;;;2.57;2.37;;;15.00;99.90;;;;;;6204561;28;20841;-68
2022/09/16 16:14:19;;;;;;;3.20;2.90;;;15.10;99.90;;;;;;6203427;28;20489;-67
2022/09/16 16:17:23;;;;;;;4.40;4.00;;;15.00;99.90;;;;;;6203421;28;20445;-68
2022/09/16 16:20:27;;;;;;;5.00;4.60;;;15.00;99.90;;;;;;6203468;28;20460;-69
2022/09/16 16:23:30;;;;;;;2.43;2.23;;;15.10;99.90;;;;;;6203129;28;20469;-67
2022/09/16 16:26:33;;;;;;;2.90;2.70;;;15.10;99.90;;;;;;6203296;28;20468;-66
2022/09/16 16:29:37;;;;;;;3.60;3.30;;;15.20;99.90;;;;;;6203005;28;20469;-67
2022/09/16 16:32:41;;;;;;;5.50;5.10;;;15.20;99.90;;;;;;6203094;28;20472;-66
2022/09/16 16:35:44;;;;;;;3.27;3.07;;;15.30;99.90;;;;;;6221904;28;20480;-66